Cartoogechaye, North Carolina
Current Conditions -  °F | °C
As of 8:35 PM on Monday 20 Oct 2014 (Local Time) from KRHP Reporting Station
Scattered Clouds Scattered Clouds  
Wind Chill: 54°   Ceiling: Unl
Heat Index: 54°   Visibility: 10mi
Dew Point: 53°   Wind: 0mph
Humidity: 97%   Direction: NA
Pressure: 30.03"   Gusts: NA
Location:  35.1737°N, 83.4215°W
Report Text: KRHP 210035Z AUTO 00000KT 10SM SCT100 12/12 A3003 RMK AO2 T01210117
Loading
Personal Weather Stations






























Interactive Weather Map
Tropical Storm Tracking
New forecast layout! Learn more

10-Day Weather Forecast

Advertisements
Track Severe Weather on mobile